createdAt,value
2018-07-16T00:01:11.279Z,9.00
2018-07-16T00:03:43.491Z,7.40
2018-07-16T00:06:14.065Z,6.90
2018-07-16T00:08:44.544Z,6.60
2018-07-16T00:11:15.084Z,6.90
2018-07-16T00:13:45.699Z,6.80
2018-07-16T00:16:16.219Z,7.10
2018-07-16T00:18:46.697Z,6.57
2018-07-16T00:21:17.669Z,6.10
2018-07-16T00:23:49.093Z,6.10
2018-07-16T00:26:19.631Z,6.63
2018-07-16T00:28:50.295Z,7.33
2018-07-16T00:31:20.758Z,6.70
2018-07-16T00:33:51.406Z,6.73
2018-07-16T00:36:21.947Z,6.10
2018-07-16T00:38:52.586Z,7.00
2018-07-16T00:41:24.608Z,7.07
2018-07-16T00:43:55.925Z,7.23
2018-07-16T00:46:26.496Z,8.07
2018-07-16T00:48:56.883Z,8.23
2018-07-16T00:51:27.426Z,8.57
2018-07-16T00:53:57.810Z,8.20
2018-07-16T00:56:28.638Z,8.53
2018-07-16T00:58:59.553Z,8.53
2018-07-16T01:01:30.822Z,8.83
2018-07-16T01:04:01.322Z,8.97
2018-07-16T01:06:32.000Z,8.47
2018-07-16T01:09:02.776Z,7.93
2018-07-16T01:11:33.322Z,8.67
2018-07-16T01:14:03.863Z,8.17
2018-07-16T01:16:34.332Z,8.53
2018-07-16T01:19:05.421Z,8.83
2018-07-16T01:21:36.738Z,8.90
2018-07-16T01:24:07.280Z,8.03
2018-07-16T01:26:37.717Z,9.37
2018-07-16T01:29:08.224Z,9.13
2018-07-16T01:31:38.764Z,8.07
2018-07-16T01:34:09.610Z,7.47
2018-07-16T01:36:40.077Z,6.93
2018-07-16T01:39:12.012Z,6.80
2018-07-16T01:41:42.937Z,7.33
2018-07-16T01:44:12.935Z,8.20
2018-07-16T01:46:43.545Z,7.90
2018-07-16T01:49:13.997Z,6.67
2018-07-16T01:51:44.588Z,6.80
2018-07-16T01:54:15.010Z,6.47
2018-07-16T01:56:45.581Z,7.27
2018-07-16T01:59:17.682Z,6.77
2018-07-16T02:01:48.462Z,7.27
2018-07-16T02:04:19.437Z,7.30
2018-07-16T02:06:50.017Z,6.67
2018-07-16T02:09:21.517Z,6.97
2018-07-16T02:11:52.019Z,6.40
2018-07-16T02:14:22.662Z,6.77
2018-07-16T02:16:53.595Z,6.00
2018-07-16T02:19:24.860Z,6.40
2018-07-16T02:21:55.313Z,6.30
2018-07-16T02:24:25.932Z,6.53
2018-07-16T02:26:56.819Z,6.63
2018-07-16T02:29:27.513Z,6.40
2018-07-16T02:31:58.186Z,6.60
2018-07-16T02:34:28.718Z,6.83
2018-07-16T02:36:59.759Z,6.73
2018-07-16T02:39:30.733Z,6.50
2018-07-16T02:42:01.447Z,7.77
2018-07-16T02:44:32.058Z,8.40
2018-07-16T02:47:02.637Z,8.50
2018-07-16T02:49:33.130Z,9.03
2018-07-16T02:52:03.710Z,9.63
2018-07-16T02:54:34.514Z,8.97
2018-07-16T02:57:05.750Z,7.40
2018-07-16T02:59:35.716Z,6.40
2018-07-16T03:02:06.497Z,6.67
2018-07-16T03:04:37.000Z,6.37
2018-07-16T03:07:08.078Z,6.63
2018-07-16T03:09:38.589Z,7.03
2018-07-16T03:12:09.309Z,6.60
2018-07-16T03:14:40.113Z,6.40
2018-07-16T03:17:12.064Z,8.80
2018-07-16T03:19:42.727Z,9.17
2018-07-16T03:22:13.265Z,8.83
2018-07-16T03:24:44.174Z,9.80
2018-07-16T03:27:14.731Z,9.33
2018-07-16T03:29:45.982Z,9.83
2018-07-16T03:32:16.611Z,9.73
2018-07-16T03:34:48.005Z,9.90
2018-07-16T03:37:18.904Z,9.60
2018-07-16T03:39:49.626Z,9.03
2018-07-16T03:42:20.127Z,8.73
2018-07-16T03:44:50.796Z,8.73
2018-07-16T03:47:20.886Z,8.90
2018-07-16T03:49:51.469Z,8.57
2018-07-16T03:52:21.494Z,8.70
2018-07-16T03:54:52.768Z,8.57
2018-07-16T03:57:23.939Z,9.17
2018-07-16T03:59:55.298Z,9.03
2018-07-16T04:02:25.991Z,8.87
2018-07-16T04:04:56.834Z,8.50
2018-07-16T04:07:27.403Z,8.80
2018-07-16T04:09:58.106Z,8.40
2018-07-16T04:12:29.480Z,9.10
2018-07-16T04:15:00.655Z,8.47
2018-07-16T04:17:30.737Z,9.13
2018-07-16T04:20:01.389Z,9.10
2018-07-16T04:22:31.869Z,10.30
2018-07-16T04:25:02.457Z,9.13
2018-07-16T04:27:32.907Z,7.00
2018-07-16T04:30:04.111Z,10.20
2018-07-16T04:32:35.589Z,10.30
2018-07-16T04:35:06.120Z,10.30
2018-07-16T04:37:36.772Z,8.63
2018-07-16T04:40:07.294Z,9.20
2018-07-16T04:42:37.921Z,8.43
2018-07-16T04:45:08.008Z,8.90
2018-07-16T04:47:38.505Z,9.00
2018-07-16T04:50:09.346Z,8.30
2018-07-16T04:52:40.599Z,8.37
2018-07-16T04:55:11.311Z,7.93
2018-07-16T04:57:41.665Z,8.60
2018-07-16T05:00:12.298Z,8.40
2018-07-16T05:02:42.763Z,8.90
2018-07-16T05:05:13.390Z,9.17
2018-07-16T05:07:43.798Z,8.30
2018-07-16T05:10:15.017Z,7.83
2018-07-16T05:12:46.656Z,7.73
2018-07-16T05:15:17.335Z,8.07
2018-07-16T05:17:47.841Z,7.27
2018-07-16T05:20:18.549Z,7.33
2018-07-16T05:22:48.970Z,6.83
2018-07-16T05:25:19.612Z,7.33
2018-07-16T05:27:49.806Z,6.83
2018-07-16T05:30:21.263Z,11.77
2018-07-16T05:32:51.798Z,7.90
2018-07-16T05:35:22.725Z,7.70
2018-07-16T05:37:53.335Z,9.07
2018-07-16T05:40:24.972Z,8.67
2018-07-16T05:42:56.223Z,8.23
2018-07-16T05:45:26.387Z,7.80
2018-07-16T05:47:57.140Z,8.23
2018-07-16T05:50:27.869Z,8.47
2018-07-16T05:52:58.561Z,8.13
2018-07-16T05:55:29.186Z,8.27
2018-07-16T05:58:00.342Z,7.03
2018-07-16T06:00:31.931Z,8.33
2018-07-16T06:03:02.826Z,8.50
2018-07-16T06:05:38.007Z,7.47
2018-07-16T06:08:08.975Z,7.20
2018-07-16T06:10:39.363Z,7.67
2018-07-16T06:13:09.851Z,7.30
2018-07-16T06:15:40.531Z,7.17
2018-07-16T06:18:13.717Z,6.63
2018-07-16T06:20:45.181Z,6.63
2018-07-16T06:23:15.636Z,6.50
2018-07-16T06:25:45.707Z,6.63
2018-07-16T06:28:16.777Z,6.73
2018-07-16T06:30:47.427Z,6.93
2018-07-16T06:33:18.080Z,6.20
2018-07-16T06:35:48.626Z,6.53
2018-07-16T06:38:20.576Z,6.47
2018-07-16T06:40:51.765Z,9.47
2018-07-16T06:43:22.178Z,6.23
2018-07-16T06:45:52.681Z,6.40
2018-07-16T06:48:23.129Z,6.00
2018-07-16T06:50:53.974Z,6.23
2018-07-16T06:53:24.673Z,6.33
2018-07-16T06:55:55.677Z,6.27
2018-07-16T06:58:27.500Z,6.37
2018-07-16T07:00:58.064Z,5.57
2018-07-16T07:03:28.245Z,5.50
2018-07-16T07:05:59.108Z,5.90
2018-07-16T07:08:29.730Z,6.33
2018-07-16T07:11:00.373Z,5.40
2018-07-16T07:13:31.042Z,5.70
2018-07-16T07:16:02.767Z,5.50
2018-07-16T07:18:34.046Z,6.20
2018-07-16T07:21:04.790Z,5.97
2018-07-16T07:23:35.457Z,6.70
2018-07-16T07:26:06.786Z,5.67
2018-07-16T07:28:37.474Z,6.33
2018-07-16T07:31:08.882Z,6.13
2018-07-16T07:33:39.417Z,6.07
2018-07-16T07:36:11.111Z,5.77
2018-07-16T07:38:41.967Z,4.90
2018-07-16T07:41:12.753Z,4.60
2018-07-16T07:43:43.522Z,5.03
2018-07-16T07:46:14.441Z,5.40
2018-07-16T07:48:52.167Z,5.30
2018-07-16T07:51:24.062Z,5.37
2018-07-16T07:53:55.673Z,5.57
2018-07-16T07:56:27.448Z,5.03
2018-07-16T07:58:58.617Z,5.03
2018-07-16T08:01:29.496Z,5.43
2018-07-16T08:04:00.149Z,5.53
2018-07-16T08:06:30.852Z,5.33
2018-07-16T08:09:02.839Z,5.73
2018-07-16T08:11:34.304Z,5.40
2018-07-16T08:14:05.063Z,5.33
2018-07-16T08:16:35.867Z,5.00
2018-07-16T08:19:06.776Z,4.87
2018-07-16T08:21:37.705Z,4.90
2018-07-16T08:24:08.965Z,6.63
2018-07-16T08:26:40.323Z,4.80
2018-07-16T08:29:12.150Z,5.37
2018-07-16T08:31:42.878Z,5.07
2018-07-16T08:34:13.789Z,5.20
2018-07-16T08:36:44.752Z,4.70
2018-07-16T08:39:16.049Z,4.90
2018-07-16T08:41:46.814Z,5.63
2018-07-16T08:44:18.367Z,5.03
2018-07-16T08:46:49.772Z,5.57
2018-07-16T08:49:21.234Z,5.20
2018-07-16T08:51:52.231Z,5.40
2018-07-16T08:54:23.555Z,4.90
2018-07-16T08:56:54.606Z,5.30
2018-07-16T08:59:26.146Z,5.10
2018-07-16T09:01:58.303Z,5.00
2018-07-16T09:04:29.458Z,4.57
2018-07-16T09:07:00.480Z,4.50
2018-07-16T09:09:31.495Z,5.07
2018-07-16T09:12:02.103Z,4.97
2018-07-16T09:14:32.897Z,4.90
2018-07-16T09:17:05.053Z,5.30
2018-07-16T09:19:36.356Z,5.20
2018-07-16T09:22:07.146Z,5.03
2018-07-16T09:24:37.721Z,4.70
2018-07-16T09:27:08.233Z,4.97
2018-07-16T09:29:39.064Z,5.07
2018-07-16T09:32:10.801Z,5.37
2018-07-16T09:34:41.290Z,4.90
2018-07-16T09:37:13.449Z,4.83
2018-07-16T09:39:45.351Z,5.10
2018-07-16T09:42:16.022Z,4.93
2018-07-16T09:44:47.179Z,5.90
2018-07-16T09:47:18.056Z,5.67
2018-07-16T09:49:49.372Z,6.20
2018-07-16T09:52:20.026Z,5.57
2018-07-16T09:55:03.942Z,6.63
2018-07-16T09:57:36.154Z,5.97
2018-07-16T10:00:07.867Z,5.83
2018-07-16T10:02:39.176Z,5.93
2018-07-16T10:05:12.613Z,6.27
2018-07-16T10:07:43.645Z,6.50
2018-07-16T10:10:15.045Z,5.77
2018-07-16T10:12:46.101Z,5.93
2018-07-16T10:15:16.869Z,5.83
2018-07-16T10:17:47.577Z,6.07
2018-07-16T10:20:18.910Z,6.27
2018-07-16T10:23:13.537Z,5.90
2018-07-16T10:25:44.718Z,6.00
2018-07-16T10:28:15.996Z,5.87
2018-07-16T10:30:49.441Z,6.47
2018-07-16T10:33:35.047Z,6.67
2018-07-16T10:36:05.816Z,6.30
2018-07-16T10:38:40.299Z,7.10
2018-07-16T10:41:10.981Z,6.97
2018-07-16T10:43:44.103Z,7.53
2018-07-16T10:46:15.891Z,7.23
2018-07-16T10:48:46.882Z,6.90
2018-07-16T10:51:18.048Z,6.23
2018-07-16T10:53:49.553Z,6.37
2018-07-16T10:56:20.624Z,7.07
2018-07-16T10:58:51.909Z,7.13
2018-07-16T11:01:23.010Z,7.10
2018-07-16T11:03:54.577Z,7.33
2018-07-16T11:06:26.212Z,7.43
2018-07-16T11:08:57.619Z,7.33
2018-07-16T11:11:28.413Z,8.47
2018-07-16T11:13:59.099Z,7.83
2018-07-16T11:16:29.236Z,7.80
2018-07-16T11:18:59.798Z,8.10
2018-07-16T11:21:31.491Z,8.17
2018-07-16T11:24:03.958Z,7.40
2018-07-16T11:26:34.842Z,8.80
2018-07-16T11:29:06.003Z,7.53
2018-07-16T11:31:36.481Z,8.13
2018-07-16T11:34:07.261Z,7.93
2018-07-16T11:36:37.259Z,7.40
2018-07-16T11:39:09.572Z,7.50
2018-07-16T11:41:40.489Z,7.60
2018-07-16T11:44:12.315Z,7.63
2018-07-16T11:46:43.045Z,7.73
2018-07-16T11:49:14.013Z,7.37
2018-07-16T11:51:44.897Z,7.93
2018-07-16T11:54:17.108Z,7.40
2018-07-16T11:56:48.486Z,7.23
2018-07-16T11:59:19.162Z,7.90
2018-07-16T12:01:51.101Z,8.00
2018-07-16T12:04:22.080Z,7.60
2018-07-16T12:06:53.508Z,7.47
2018-07-16T12:09:24.207Z,7.60
2018-07-16T12:11:56.175Z,7.27
2018-07-16T12:14:26.906Z,6.63
2018-07-16T12:17:01.796Z,7.00
2018-07-16T12:19:36.345Z,7.00
2018-07-16T12:22:09.116Z,6.20
2018-07-16T12:24:41.606Z,6.70
2018-07-16T12:27:13.799Z,6.70
2018-07-16T12:29:44.940Z,6.90
2018-07-16T12:32:17.859Z,7.53
2018-07-16T12:34:51.138Z,7.40
2018-07-16T12:37:24.937Z,7.40
2018-07-16T12:39:57.332Z,6.53
2018-07-16T12:42:30.566Z,6.57
2018-07-16T12:45:03.648Z,6.90
2018-07-16T12:47:36.498Z,6.13
2018-07-16T12:50:09.565Z,5.77
2018-07-16T12:55:15.900Z,5.30
2018-07-16T12:57:47.730Z,5.77
2018-07-16T13:00:18.832Z,5.40
2018-07-16T13:02:50.642Z,5.43
2018-07-16T13:05:21.735Z,5.43
2018-07-16T13:07:53.610Z,5.10
2018-07-16T13:10:24.273Z,5.33
2018-07-16T13:12:55.971Z,5.43
2018-07-16T13:15:30.118Z,5.17
2018-07-16T13:18:01.645Z,5.30
2018-07-16T13:20:33.692Z,5.43
2018-07-16T13:23:04.328Z,5.47
2018-07-16T13:25:36.400Z,5.00
2018-07-16T13:28:07.332Z,5.13
2018-07-16T13:30:38.194Z,5.13
2018-07-16T13:33:08.495Z,5.40
2018-07-16T13:35:39.527Z,5.27
2018-07-16T13:38:11.402Z,5.33
2018-07-16T13:40:42.415Z,5.87
2018-07-16T13:43:13.951Z,5.17
2018-07-16T13:45:45.002Z,5.97
2018-07-16T13:48:15.795Z,5.80
2018-07-16T13:50:47.633Z,6.50
2018-07-16T13:53:18.666Z,6.07
2018-07-16T13:55:50.584Z,6.70
2018-07-16T13:58:21.766Z,6.33
2018-07-16T14:00:53.249Z,7.03
2018-07-16T14:03:24.441Z,7.00
2018-07-16T14:05:55.723Z,6.50
2018-07-16T14:08:26.861Z,6.43
2018-07-16T14:10:57.639Z,6.30
2018-07-16T14:13:29.218Z,6.60
2018-07-16T14:16:00.779Z,7.20
2018-07-16T14:18:31.951Z,6.30
2018-07-16T14:21:05.067Z,9.60
2018-07-16T14:23:36.157Z,6.57
2018-07-16T14:26:07.956Z,6.80
2018-07-16T14:28:39.016Z,7.00
2018-07-16T14:31:11.099Z,6.83
2018-07-16T14:33:44.041Z,6.60
2018-07-16T14:36:15.128Z,6.97
2018-07-16T14:38:46.159Z,7.00
2018-07-16T14:41:17.493Z,6.70
2018-07-16T14:43:49.796Z,6.93
2018-07-16T14:46:20.699Z,6.87
2018-07-16T14:48:53.405Z,6.90
2018-07-16T14:51:24.389Z,6.97
2018-07-16T14:53:55.044Z,6.90
2018-07-16T14:56:26.949Z,9.43
2018-07-16T14:58:58.927Z,6.53
2018-07-16T15:01:29.919Z,7.20
2018-07-16T15:04:01.507Z,7.23
2018-07-16T15:06:33.840Z,7.03
2018-07-16T15:09:09.363Z,6.80
2018-07-16T15:11:40.511Z,7.27
2018-07-16T15:14:11.941Z,6.97
2018-07-16T15:16:43.628Z,7.30
2018-07-16T15:19:15.634Z,7.03
2018-07-16T15:21:50.958Z,6.63
2018-07-16T15:24:22.402Z,7.53
2018-07-16T15:26:53.210Z,6.30
2018-07-16T15:29:24.159Z,6.57
2018-07-16T15:31:54.879Z,6.53
2018-07-16T15:34:25.834Z,6.67
2018-07-16T15:36:58.474Z,6.20
2018-07-16T15:39:30.211Z,6.80
2018-07-16T15:42:01.571Z,6.57
2018-07-16T15:44:46.923Z,6.13
2018-07-16T15:47:23.660Z,5.67
2018-07-16T15:49:55.354Z,5.97
2018-07-16T15:52:42.257Z,6.03
2018-07-16T15:55:18.527Z,5.70
2018-07-16T15:57:54.937Z,6.37
2018-07-16T16:00:26.936Z,7.13
2018-07-16T16:02:58.309Z,7.13
2018-07-16T16:05:32.591Z,6.60
2018-07-16T16:08:04.604Z,6.07
2018-07-16T16:10:37.819Z,6.00
2018-07-16T16:13:08.913Z,5.83
2018-07-16T16:15:41.709Z,5.83
2018-07-16T16:18:12.947Z,6.17
2018-07-16T16:20:44.729Z,6.40
2018-07-16T16:23:16.102Z,5.87
2018-07-16T16:25:47.337Z,6.03
2018-07-16T16:28:20.899Z,5.90
2018-07-16T16:30:52.294Z,4.90
2018-07-16T16:33:23.169Z,4.40
2018-07-16T16:35:55.602Z,4.30
2018-07-16T16:38:27.279Z,4.80
2018-07-16T16:40:58.878Z,4.63
2018-07-16T16:43:30.915Z,4.70
2018-07-16T16:46:02.800Z,4.80
2018-07-16T16:48:33.729Z,4.20
2018-07-16T16:51:05.659Z,4.17
2018-07-16T16:53:36.728Z,4.57
2018-07-16T16:56:09.157Z,4.40
2018-07-16T16:58:45.543Z,4.23
2018-07-16T17:01:18.282Z,4.93
2018-07-16T17:03:51.601Z,4.53
2018-07-16T17:06:22.948Z,4.87
2018-07-16T17:08:53.403Z,4.13
2018-07-16T17:11:25.242Z,4.47
2018-07-16T17:13:58.174Z,4.50
2018-07-16T17:16:30.504Z,4.70
2018-07-16T17:19:05.462Z,4.93
2018-07-16T17:21:38.691Z,4.70
2018-07-16T17:24:11.862Z,4.93
2018-07-16T17:26:48.188Z,4.67
2018-07-16T17:29:21.713Z,5.10
2018-07-16T17:31:53.989Z,5.00
2018-07-16T17:34:26.458Z,4.27
2018-07-16T17:36:58.685Z,4.73
2018-07-16T17:39:31.701Z,4.53
2018-07-16T17:42:03.819Z,4.70
2018-07-16T17:44:36.618Z,4.57
2018-07-16T17:47:09.856Z,5.03
2018-07-16T17:49:41.122Z,4.60
2018-07-16T17:52:11.978Z,4.80
2018-07-16T17:54:51.279Z,4.83
2018-07-16T17:57:22.089Z,4.67
2018-07-16T18:00:00.031Z,4.73
2018-07-16T18:02:36.539Z,5.13
2018-07-16T18:05:10.491Z,4.90
2018-07-16T18:07:42.924Z,4.53
2018-07-16T18:10:17.585Z,4.17
2018-07-16T18:12:49.091Z,5.20
2018-07-16T18:15:19.984Z,4.70
2018-07-16T18:17:51.396Z,5.27
2018-07-16T18:20:23.141Z,5.10
2018-07-16T18:22:53.994Z,5.87
2018-07-16T18:25:25.213Z,4.70
2018-07-16T18:27:57.126Z,4.67
2018-07-16T18:30:28.349Z,4.90
2018-07-16T18:32:59.883Z,4.90
2018-07-16T18:35:32.212Z,5.20
2018-07-16T18:38:04.560Z,5.30
2018-07-16T18:40:35.845Z,5.17
2018-07-16T18:43:09.317Z,5.77
2018-07-16T18:45:40.857Z,5.13
2018-07-16T18:48:13.074Z,6.13
2018-07-16T18:50:46.085Z,5.73
2018-07-16T18:53:19.599Z,5.73
2018-07-16T18:55:51.297Z,5.53
2018-07-16T18:58:23.315Z,5.37
2018-07-16T19:00:55.640Z,5.73
2018-07-16T19:03:27.944Z,6.03
2018-07-16T19:06:01.708Z,8.57
2018-07-16T19:08:34.687Z,6.47
2018-07-16T19:11:08.544Z,6.50
2018-07-16T19:13:41.846Z,5.90
2018-07-16T19:16:14.052Z,5.13
2018-07-16T19:18:46.575Z,5.73
2018-07-16T19:21:19.345Z,6.20
2018-07-16T19:23:51.214Z,6.87
2018-07-16T19:26:23.430Z,6.20
2018-07-16T19:28:55.199Z,6.70
2018-07-16T19:31:27.752Z,5.93
2018-07-16T19:34:01.084Z,5.83
2018-07-16T19:36:34.472Z,3.40
2018-07-16T19:39:07.828Z,2.37
2018-07-16T19:41:41.236Z,3.47
2018-07-16T20:38:16.023Z,6.30
2018-07-16T20:40:48.791Z,6.73
2018-07-16T20:43:20.624Z,7.03
2018-07-16T20:45:53.484Z,9.23
2018-07-16T20:48:25.747Z,8.83
2018-07-16T20:50:57.669Z,9.47
2018-07-16T20:53:30.101Z,9.40
2018-07-16T20:56:01.680Z,8.83
2018-07-16T20:58:33.485Z,9.07
2018-07-16T21:01:05.361Z,8.60
2018-07-16T21:03:36.567Z,8.20
2018-07-16T21:06:07.727Z,9.40
2018-07-16T21:08:38.376Z,9.37
2018-07-16T21:11:09.615Z,8.60
2018-07-16T21:13:40.703Z,6.80
2018-07-16T21:16:11.859Z,6.30
2018-07-16T21:18:43.021Z,5.93
2018-07-16T21:21:15.964Z,5.70
2018-07-16T21:23:48.515Z,6.47
2018-07-16T21:26:20.304Z,6.03
2018-07-16T21:28:51.150Z,5.80
2018-07-16T21:31:26.045Z,4.87
2018-07-16T21:33:57.022Z,6.27
2018-07-16T21:36:28.176Z,5.53
2018-07-16T21:38:58.738Z,6.20
2018-07-16T21:41:28.952Z,5.73
2018-07-16T21:44:00.316Z,5.70
2018-07-16T21:46:31.259Z,5.80
2018-07-16T21:49:05.296Z,6.20
2018-07-16T21:51:36.223Z,6.73
2018-07-16T21:54:08.896Z,5.90
2018-07-16T21:56:39.867Z,5.13
2018-07-16T21:59:10.563Z,5.80
2018-07-16T22:01:41.790Z,6.50
2018-07-16T22:04:12.499Z,6.60
2018-07-16T22:06:42.697Z,5.83
2018-07-16T22:09:13.422Z,5.63
2018-07-16T22:11:44.942Z,7.17
2018-07-16T22:14:17.677Z,6.80
2018-07-16T22:16:49.005Z,6.20
2018-07-16T22:19:21.109Z,6.30
2018-07-16T22:21:52.849Z,5.73
2018-07-16T22:25:01.288Z,5.57
2018-07-16T22:27:32.140Z,5.83
2018-07-16T22:30:02.747Z,5.70
2018-07-16T22:32:52.557Z,4.80
2018-07-16T22:35:23.645Z,5.10
2018-07-16T22:37:54.416Z,5.13
2018-07-16T22:40:25.991Z,5.50
2018-07-16T22:42:56.761Z,5.37
2018-07-16T22:45:27.678Z,4.83
2018-07-16T22:47:58.409Z,5.37
2018-07-16T22:50:29.085Z,5.40
2018-07-16T22:52:59.656Z,5.33
2018-07-16T22:55:30.353Z,5.30
2018-07-16T22:58:00.976Z,5.83
2018-07-16T23:00:31.678Z,4.90
2018-07-16T23:03:02.371Z,5.57
2018-07-16T23:05:33.443Z,5.23
2018-07-16T23:08:05.026Z,5.37
2018-07-16T23:10:35.653Z,6.17
2018-07-16T23:13:06.210Z,6.43
2018-07-16T23:15:37.156Z,6.27
2018-07-16T23:18:07.798Z,5.70
2018-07-16T23:20:38.337Z,6.73
2018-07-16T23:23:08.731Z,7.67
2018-07-16T23:25:40.029Z,6.27
2018-07-16T23:28:10.491Z,6.30
2018-07-16T23:30:41.740Z,5.37
2018-07-16T23:33:11.734Z,5.43
2018-07-16T23:35:43.278Z,7.53
2018-07-16T23:38:13.767Z,5.83
2018-07-16T23:40:44.547Z,6.50
2018-07-16T23:43:14.730Z,5.90
2018-07-16T23:45:46.701Z,6.40
2018-07-16T23:48:17.389Z,6.33
2018-07-16T23:50:48.134Z,5.60
2018-07-16T23:53:18.790Z,5.60
2018-07-16T23:55:49.446Z,5.50
2018-07-16T23:58:19.833Z,7.23
